sensor_id;sensor_type;location;lat;lon;timestamp;P1;durP1;ratioP1;P2;durP2;ratioP2
46084;SDS011;31823;47.032;8.310;2023-07-20T00:00:51;10.02;;;5.32;;
46084;SDS011;31823;47.032;8.310;2023-07-20T00:03:18;8.07;;;4.75;;
46084;SDS011;31823;47.032;8.310;2023-07-20T00:05:48;8.38;;;4.72;;
46084;SDS011;31823;47.032;8.310;2023-07-20T00:08:14;8.55;;;5.13;;
46084;SDS011;31823;47.032;8.310;2023-07-20T00:10:41;9.95;;;4.93;;
46084;SDS011;31823;47.032;8.310;2023-07-20T00:13:07;8.27;;;4.10;;
46084;SDS011;31823;47.032;8.310;2023-07-20T00:15:32;16.65;;;5.32;;
46084;SDS011;31823;47.032;8.310;2023-07-20T00:17:58;9.32;;;4.95;;
46084;SDS011;31823;47.032;8.310;2023-07-20T00:20:24;7.38;;;4.72;;
46084;SDS011;31823;47.032;8.310;2023-07-20T00:22:50;7.65;;;4.95;;
46084;SDS011;31823;47.032;8.310;2023-07-20T00:25:19;7.70;;;4.57;;
46084;SDS011;31823;47.032;8.310;2023-07-20T00:27:45;7.57;;;5.10;;
46084;SDS011;31823;47.032;8.310;2023-07-20T00:30:11;5.97;;;3.83;;
46084;SDS011;31823;47.032;8.310;2023-07-20T00:32:37;8.63;;;4.28;;
46084;SDS011;31823;47.032;8.310;2023-07-20T00:35:02;9.95;;;4.30;;
46084;SDS011;31823;47.032;8.310;2023-07-20T00:37:28;12.60;;;4.63;;
46084;SDS011;31823;47.032;8.310;2023-07-20T00:39:54;8.27;;;4.07;;
46084;SDS011;31823;47.032;8.310;2023-07-20T00:42:19;7.00;;;4.22;;
46084;SDS011;31823;47.032;8.310;2023-07-20T00:44:45;10.65;;;4.75;;
46084;SDS011;31823;47.032;8.310;2023-07-20T00:47:11;7.82;;;4.82;;
46084;SDS011;31823;47.032;8.310;2023-07-20T00:49:37;8.80;;;4.95;;
46084;SDS011;31823;47.032;8.310;2023-07-20T00:52:03;9.18;;;4.82;;
46084;SDS011;31823;47.032;8.310;2023-07-20T00:54:29;7.88;;;4.63;;
46084;SDS011;31823;47.032;8.310;2023-07-20T00:56:55;9.43;;;4.70;;
46084;SDS011;31823;47.032;8.310;2023-07-20T00:59:21;9.45;;;4.63;;
46084;SDS011;31823;47.032;8.310;2023-07-20T01:01:47;8.63;;;4.43;;
46084;SDS011;31823;47.032;8.310;2023-07-20T01:04:12;9.57;;;4.80;;
46084;SDS011;31823;47.032;8.310;2023-07-20T01:09:07;9.40;;;4.50;;
46084;SDS011;31823;47.032;8.310;2023-07-20T01:11:54;9.40;;;4.63;;
46084;SDS011;31823;47.032;8.310;2023-07-20T01:14:29;11.18;;;4.13;;
46084;SDS011;31823;47.032;8.310;2023-07-20T01:16:57;11.30;;;4.32;;
46084;SDS011;31823;47.032;8.310;2023-07-20T01:19:22;8.40;;;5.18;;
46084;SDS011;31823;47.032;8.310;2023-07-20T01:33:08;16.15;;;5.82;;
46084;SDS011;31823;47.032;8.310;2023-07-20T01:35:36;9.30;;;5.07;;
46084;SDS011;31823;47.032;8.310;2023-07-20T01:38:05;7.43;;;4.28;;
46084;SDS011;31823;47.032;8.310;2023-07-20T01:40:32;9.65;;;4.35;;
46084;SDS011;31823;47.032;8.310;2023-07-20T01:42:58;8.05;;;4.40;;
46084;SDS011;31823;47.032;8.310;2023-07-20T01:45:23;10.35;;;4.72;;
46084;SDS011;31823;47.032;8.310;2023-07-20T01:47:49;5.20;;;3.72;;
46084;SDS011;31823;47.032;8.310;2023-07-20T01:50:14;6.35;;;3.85;;
46084;SDS011;31823;47.032;8.310;2023-07-20T01:52:40;10.15;;;3.88;;
46084;SDS011;31823;47.032;8.310;2023-07-20T01:55:06;12.00;;;5.03;;
46084;SDS011;31823;47.032;8.310;2023-07-20T01:57:32;10.20;;;4.25;;
46084;SDS011;31823;47.032;8.310;2023-07-20T01:59:57;9.63;;;3.97;;
46084;SDS011;31823;47.032;8.310;2023-07-20T02:02:26;6.30;;;4.30;;
46084;SDS011;31823;47.032;8.310;2023-07-20T02:04:53;5.50;;;3.30;;
46084;SDS011;31823;47.032;8.310;2023-07-20T02:07:18;5.82;;;3.88;;
46084;SDS011;31823;47.032;8.310;2023-07-20T02:09:44;7.57;;;3.72;;
46084;SDS011;31823;47.032;8.310;2023-07-20T02:12:09;8.85;;;3.25;;
46084;SDS011;31823;47.032;8.310;2023-07-20T02:14:35;6.40;;;3.80;;
46084;SDS011;31823;47.032;8.310;2023-07-20T02:17:00;6.03;;;3.70;;
46084;SDS011;31823;47.032;8.310;2023-07-20T02:19:26;7.50;;;3.42;;
46084;SDS011;31823;47.032;8.310;2023-07-20T02:21:52;6.10;;;3.28;;
46084;SDS011;31823;47.032;8.310;2023-07-20T02:24:18;9.60;;;3.85;;
46084;SDS011;31823;47.032;8.310;2023-07-20T02:26:43;5.10;;;3.50;;
46084;SDS011;31823;47.032;8.310;2023-07-20T02:29:09;8.77;;;3.50;;
46084;SDS011;31823;47.032;8.310;2023-07-20T02:31:37;9.80;;;5.00;;
46084;SDS011;31823;47.032;8.310;2023-07-20T02:34:04;7.43;;;3.47;;
46084;SDS011;31823;47.032;8.310;2023-07-20T02:36:30;4.60;;;2.95;;
46084;SDS011;31823;47.032;8.310;2023-07-20T02:38:57;7.82;;;3.10;;
46084;SDS011;31823;47.032;8.310;2023-07-20T02:41:23;5.40;;;3.00;;
46084;SDS011;31823;47.032;8.310;2023-07-20T02:43:49;4.72;;;3.33;;
46084;SDS011;31823;47.032;8.310;2023-07-20T02:46:15;6.93;;;3.15;;
46084;SDS011;31823;47.032;8.310;2023-07-20T02:48:40;5.20;;;3.40;;
46084;SDS011;31823;47.032;8.310;2023-07-20T02:51:06;6.72;;;3.08;;
46084;SDS011;31823;47.032;8.310;2023-07-20T02:53:32;10.30;;;3.08;;
46084;SDS011;31823;47.032;8.310;2023-07-20T02:55:58;6.38;;;2.92;;
46084;SDS011;31823;47.032;8.310;2023-07-20T02:58:24;7.40;;;3.13;;
46084;SDS011;31823;47.032;8.310;2023-07-20T03:00:49;6.10;;;2.95;;
46084;SDS011;31823;47.032;8.310;2023-07-20T03:03:15;7.30;;;3.67;;
46084;SDS011;31823;47.032;8.310;2023-07-20T03:05:41;4.68;;;2.85;;
46084;SDS011;31823;47.032;8.310;2023-07-20T03:08:07;7.03;;;2.90;;
46084;SDS011;31823;47.032;8.310;2023-07-20T03:10:32;4.43;;;2.83;;
46084;SDS011;31823;47.032;8.310;2023-07-20T03:13:03;3.60;;;2.45;;
46084;SDS011;31823;47.032;8.310;2023-07-20T03:15:28;4.97;;;3.10;;
46084;SDS011;31823;47.032;8.310;2023-07-20T03:17:54;4.47;;;3.33;;
46084;SDS011;31823;47.032;8.310;2023-07-20T03:20:19;6.30;;;3.05;;
46084;SDS011;31823;47.032;8.310;2023-07-20T03:22:45;7.00;;;3.40;;
46084;SDS011;31823;47.032;8.310;2023-07-20T03:25:11;8.60;;;3.67;;
46084;SDS011;31823;47.032;8.310;2023-07-20T03:27:37;4.78;;;3.42;;
46084;SDS011;31823;47.032;8.310;2023-07-20T03:30:02;6.75;;;3.53;;
46084;SDS011;31823;47.032;8.310;2023-07-20T03:32:28;7.25;;;3.50;;
46084;SDS011;31823;47.032;8.310;2023-07-20T03:34:53;7.40;;;3.58;;
46084;SDS011;31823;47.032;8.310;2023-07-20T03:37:19;6.97;;;3.35;;
46084;SDS011;31823;47.032;8.310;2023-07-20T03:39:45;6.38;;;3.60;;
46084;SDS011;31823;47.032;8.310;2023-07-20T03:42:10;5.53;;;3.50;;
46084;SDS011;31823;47.032;8.310;2023-07-20T03:44:36;5.07;;;3.30;;
46084;SDS011;31823;47.032;8.310;2023-07-20T03:47:01;7.88;;;3.50;;
46084;SDS011;31823;47.032;8.310;2023-07-20T03:49:28;6.28;;;3.55;;
46084;SDS011;31823;47.032;8.310;2023-07-20T03:51:54;6.13;;;3.83;;
46084;SDS011;31823;47.032;8.310;2023-07-20T03:54:20;3.72;;;2.53;;
46084;SDS011;31823;47.032;8.310;2023-07-20T03:56:46;6.65;;;3.15;;
46084;SDS011;31823;47.032;8.310;2023-07-20T03:59:11;6.30;;;2.95;;
46084;SDS011;31823;47.032;8.310;2023-07-20T04:01:37;5.55;;;2.97;;
46084;SDS011;31823;47.032;8.310;2023-07-20T04:04:06;4.53;;;3.25;;
46084;SDS011;31823;47.032;8.310;2023-07-20T04:06:32;4.22;;;2.70;;
46084;SDS011;31823;47.032;8.310;2023-07-20T04:08:58;4.75;;;3.00;;
46084;SDS011;31823;47.032;8.310;2023-07-20T04:11:24;5.85;;;3.05;;
46084;SDS011;31823;47.032;8.310;2023-07-20T04:13:49;3.22;;;2.90;;
46084;SDS011;31823;47.032;8.310;2023-07-20T04:16:15;5.65;;;2.40;;
46084;SDS011;31823;47.032;8.310;2023-07-20T04:18:40;4.70;;;2.58;;
46084;SDS011;31823;47.032;8.310;2023-07-20T04:21:07;4.95;;;2.67;;
46084;SDS011;31823;47.032;8.310;2023-07-20T04:23:33;5.20;;;3.13;;
46084;SDS011;31823;47.032;8.310;2023-07-20T04:26:00;3.20;;;2.70;;
46084;SDS011;31823;47.032;8.310;2023-07-20T04:28:26;5.07;;;3.05;;
46084;SDS011;31823;47.032;8.310;2023-07-20T04:30:52;8.23;;;2.90;;
46084;SDS011;31823;47.032;8.310;2023-07-20T04:33:18;3.95;;;3.05;;
46084;SDS011;31823;47.032;8.310;2023-07-20T04:38:15;18.02;;;4.70;;
46084;SDS011;31823;47.032;8.310;2023-07-20T04:40:45;5.47;;;2.95;;
46084;SDS011;31823;47.032;8.310;2023-07-20T04:43:11;5.72;;;2.88;;
46084;SDS011;31823;47.032;8.310;2023-07-20T04:45:37;9.88;;;3.10;;
46084;SDS011;31823;47.032;8.310;2023-07-20T04:48:05;4.47;;;3.10;;
46084;SDS011;31823;47.032;8.310;2023-07-20T04:50:36;12.88;;;3.25;;
46084;SDS011;31823;47.032;8.310;2023-07-20T04:53:01;4.50;;;2.70;;
46084;SDS011;31823;47.032;8.310;2023-07-20T04:55:27;4.55;;;3.08;;
46084;SDS011;31823;47.032;8.310;2023-07-20T04:57:53;4.47;;;2.90;;
46084;SDS011;31823;47.032;8.310;2023-07-20T05:00:18;6.72;;;2.78;;
46084;SDS011;31823;47.032;8.310;2023-07-20T05:02:44;5.22;;;2.88;;
46084;SDS011;31823;47.032;8.310;2023-07-20T05:05:12;8.27;;;3.53;;
46084;SDS011;31823;47.032;8.310;2023-07-20T05:07:38;4.40;;;3.10;;
46084;SDS011;31823;47.032;8.310;2023-07-20T05:10:03;5.85;;;2.60;;
46084;SDS011;31823;47.032;8.310;2023-07-20T05:12:29;5.63;;;2.85;;
46084;SDS011;31823;47.032;8.310;2023-07-20T05:14:55;7.63;;;2.80;;
46084;SDS011;31823;47.032;8.310;2023-07-20T05:17:20;4.32;;;2.70;;
46084;SDS011;31823;47.032;8.310;2023-07-20T05:19:46;4.03;;;2.55;;
46084;SDS011;31823;47.032;8.310;2023-07-20T05:22:13;5.85;;;3.17;;
46084;SDS011;31823;47.032;8.310;2023-07-20T05:24:39;5.18;;;2.50;;
46084;SDS011;31823;47.032;8.310;2023-07-20T05:27:04;5.63;;;2.58;;
46084;SDS011;31823;47.032;8.310;2023-07-20T05:29:30;5.00;;;2.83;;
46084;SDS011;31823;47.032;8.310;2023-07-20T05:31:56;4.30;;;2.67;;
46084;SDS011;31823;47.032;8.310;2023-07-20T05:34:22;3.33;;;2.55;;
46084;SDS011;31823;47.032;8.310;2023-07-20T05:36:48;4.00;;;2.95;;
46084;SDS011;31823;47.032;8.310;2023-07-20T05:39:14;2.72;;;2.47;;
46084;SDS011;31823;47.032;8.310;2023-07-20T05:41:41;4.53;;;3.25;;
46084;SDS011;31823;47.032;8.310;2023-07-20T05:44:07;4.50;;;3.00;;
46084;SDS011;31823;47.032;8.310;2023-07-20T05:46:33;3.45;;;2.33;;
46084;SDS011;31823;47.032;8.310;2023-07-20T05:48:58;10.90;;;3.25;;
46084;SDS011;31823;47.032;8.310;2023-07-20T05:51:24;4.65;;;2.45;;
46084;SDS011;31823;47.032;8.310;2023-07-20T05:53:49;8.45;;;2.78;;
46084;SDS011;31823;47.032;8.310;2023-07-20T05:56:15;4.60;;;3.17;;
46084;SDS011;31823;47.032;8.310;2023-07-20T05:58:40;3.85;;;2.78;;
46084;SDS011;31823;47.032;8.310;2023-07-20T06:01:06;4.15;;;2.92;;
46084;SDS011;31823;47.032;8.310;2023-07-20T06:03:31;5.78;;;3.58;;
46084;SDS011;31823;47.032;8.310;2023-07-20T06:05:59;3.70;;;2.65;;
46084;SDS011;31823;47.032;8.310;2023-07-20T06:08:26;6.55;;;3.35;;
46084;SDS011;31823;47.032;8.310;2023-07-20T06:10:52;6.05;;;3.38;;
46084;SDS011;31823;47.032;8.310;2023-07-20T06:13:17;6.22;;;3.45;;
46084;SDS011;31823;47.032;8.310;2023-07-20T06:15:43;9.30;;;3.50;;
46084;SDS011;31823;47.032;8.310;2023-07-20T06:18:08;5.65;;;3.20;;
46084;SDS011;31823;47.032;8.310;2023-07-20T06:20:34;9.15;;;3.47;;
46084;SDS011;31823;47.032;8.310;2023-07-20T06:23:00;7.72;;;3.83;;
46084;SDS011;31823;47.032;8.310;2023-07-20T06:25:25;5.47;;;3.13;;
46084;SDS011;31823;47.032;8.310;2023-07-20T06:27:54;5.35;;;2.92;;
46084;SDS011;31823;47.032;8.310;2023-07-20T06:30:20;7.03;;;3.50;;
46084;SDS011;31823;47.032;8.310;2023-07-20T06:32:46;7.75;;;3.10;;
46084;SDS011;31823;47.032;8.310;2023-07-20T06:35:12;5.00;;;2.55;;
46084;SDS011;31823;47.032;8.310;2023-07-20T06:37:38;3.88;;;2.67;;
46084;SDS011;31823;47.032;8.310;2023-07-20T06:40:04;4.35;;;2.63;;
46084;SDS011;31823;47.032;8.310;2023-07-20T06:42:30;12.57;;;4.20;;
46084;SDS011;31823;47.032;8.310;2023-07-20T06:44:56;6.18;;;3.15;;
46084;SDS011;31823;47.032;8.310;2023-07-20T06:47:22;6.72;;;2.72;;
46084;SDS011;31823;47.032;8.310;2023-07-20T06:49:48;4.15;;;2.72;;
46084;SDS011;31823;47.032;8.310;2023-07-20T06:52:14;4.10;;;2.60;;
46084;SDS011;31823;47.032;8.310;2023-07-20T06:54:40;7.47;;;3.03;;
46084;SDS011;31823;47.032;8.310;2023-07-20T06:57:05;2.92;;;2.50;;
46084;SDS011;31823;47.032;8.310;2023-07-20T06:59:31;4.88;;;3.30;;
46084;SDS011;31823;47.032;8.310;2023-07-20T07:01:57;6.30;;;2.60;;
46084;SDS011;31823;47.032;8.310;2023-07-20T07:04:22;4.13;;;2.60;;
46084;SDS011;31823;47.032;8.310;2023-07-20T07:06:48;5.13;;;2.70;;
46084;SDS011;31823;47.032;8.310;2023-07-20T07:09:13;3.30;;;2.63;;
46084;SDS011;31823;47.032;8.310;2023-07-20T07:11:39;7.13;;;2.88;;
46084;SDS011;31823;47.032;8.310;2023-07-20T07:14:05;5.75;;;2.83;;
46084;SDS011;31823;47.032;8.310;2023-07-20T07:16:30;3.53;;;2.92;;
46084;SDS011;31823;47.032;8.310;2023-07-20T07:18:56;3.53;;;2.50;;
46084;SDS011;31823;47.032;8.310;2023-07-20T07:21:21;6.18;;;2.70;;
46084;SDS011;31823;47.032;8.310;2023-07-20T07:23:47;9.18;;;2.75;;
46084;SDS011;31823;47.032;8.310;2023-07-20T07:26:13;5.15;;;2.55;;
46084;SDS011;31823;47.032;8.310;2023-07-20T07:28:38;15.05;;;3.63;;
46084;SDS011;31823;47.032;8.310;2023-07-20T07:31:04;4.18;;;2.80;;
46084;SDS011;31823;47.032;8.310;2023-07-20T07:33:33;5.97;;;2.75;;
46084;SDS011;31823;47.032;8.310;2023-07-20T07:36:00;7.88;;;3.42;;
46084;SDS011;31823;47.032;8.310;2023-07-20T07:38:25;5.95;;;2.72;;
46084;SDS011;31823;47.032;8.310;2023-07-20T07:40:51;4.15;;;2.83;;
46084;SDS011;31823;47.032;8.310;2023-07-20T07:43:16;3.90;;;2.00;;
46084;SDS011;31823;47.032;8.310;2023-07-20T07:45:42;4.10;;;1.90;;
46084;SDS011;31823;47.032;8.310;2023-07-20T07:48:07;5.72;;;2.05;;
46084;SDS011;31823;47.032;8.310;2023-07-20T07:50:36;7.28;;;2.20;;
46084;SDS011;31823;47.032;8.310;2023-07-20T07:53:02;4.25;;;1.92;;
46084;SDS011;31823;47.032;8.310;2023-07-20T07:55:28;3.13;;;2.45;;
46084;SDS011;31823;47.032;8.310;2023-07-20T07:57:54;3.13;;;1.70;;
46084;SDS011;31823;47.032;8.310;2023-07-20T08:00:19;5.75;;;2.10;;
46084;SDS011;31823;47.032;8.310;2023-07-20T08:02:45;2.70;;;1.77;;
46084;SDS011;31823;47.032;8.310;2023-07-20T08:05:13;4.65;;;1.60;;
46084;SDS011;31823;47.032;8.310;2023-07-20T08:07:39;4.43;;;2.20;;
46084;SDS011;31823;47.032;8.310;2023-07-20T08:10:05;5.35;;;1.90;;
46084;SDS011;31823;47.032;8.310;2023-07-20T08:12:31;2.05;;;1.75;;
46084;SDS011;31823;47.032;8.310;2023-07-20T08:14:57;3.00;;;2.00;;
46084;SDS011;31823;47.032;8.310;2023-07-20T08:17:22;3.63;;;1.80;;
46084;SDS011;31823;47.032;8.310;2023-07-20T08:19:48;2.70;;;2.03;;
46084;SDS011;31823;47.032;8.310;2023-07-20T08:22:14;6.70;;;2.35;;
46084;SDS011;31823;47.032;8.310;2023-07-20T08:24:39;5.85;;;2.75;;
46084;SDS011;31823;47.032;8.310;2023-07-20T08:27:06;3.28;;;1.77;;
46084;SDS011;31823;47.032;8.310;2023-07-20T08:29:32;7.07;;;1.65;;
46084;SDS011;31823;47.032;8.310;2023-07-20T08:31:57;3.70;;;1.73;;
46084;SDS011;31823;47.032;8.310;2023-07-20T08:34:23;6.15;;;2.95;;
46084;SDS011;31823;47.032;8.310;2023-07-20T08:36:48;4.90;;;2.47;;
46084;SDS011;31823;47.032;8.310;2023-07-20T08:39:14;6.63;;;2.10;;
46084;SDS011;31823;47.032;8.310;2023-07-20T08:41:40;6.50;;;1.73;;
46084;SDS011;31823;47.032;8.310;2023-07-20T08:44:11;3.60;;;1.58;;
46084;SDS011;31823;47.032;8.310;2023-07-20T08:46:38;3.00;;;1.70;;
46084;SDS011;31823;47.032;8.310;2023-07-20T08:49:05;5.80;;;1.88;;
46084;SDS011;31823;47.032;8.310;2023-07-20T08:51:31;3.03;;;1.65;;
46084;SDS011;31823;47.032;8.310;2023-07-20T08:53:58;3.85;;;2.00;;
46084;SDS011;31823;47.032;8.310;2023-07-20T08:56:25;6.57;;;2.10;;
46084;SDS011;31823;47.032;8.310;2023-07-20T08:58:52;2.92;;;2.03;;
46084;SDS011;31823;47.032;8.310;2023-07-20T09:01:19;3.00;;;1.75;;
46084;SDS011;31823;47.032;8.310;2023-07-20T09:03:45;5.32;;;1.90;;
46084;SDS011;31823;47.032;8.310;2023-07-20T09:06:11;6.80;;;2.30;;
46084;SDS011;31823;47.032;8.310;2023-07-20T09:08:40;4.28;;;2.30;;
46084;SDS011;31823;47.032;8.310;2023-07-20T09:11:06;4.32;;;1.80;;
46084;SDS011;31823;47.032;8.310;2023-07-20T09:13:33;3.08;;;2.15;;
46084;SDS011;31823;47.032;8.310;2023-07-20T09:15:59;3.85;;;2.20;;
46084;SDS011;31823;47.032;8.310;2023-07-20T09:20:50;2.10;;;1.77;;
46084;SDS011;31823;47.032;8.310;2023-07-20T09:23:16;3.92;;;2.05;;
46084;SDS011;31823;47.032;8.310;2023-07-20T09:25:41;5.40;;;2.75;;
46084;SDS011;31823;47.032;8.310;2023-07-20T09:28:07;3.22;;;2.38;;
46084;SDS011;31823;47.032;8.310;2023-07-20T09:30:32;5.63;;;2.95;;
46084;SDS011;31823;47.032;8.310;2023-07-20T09:32:58;6.63;;;2.97;;
46084;SDS011;31823;47.032;8.310;2023-07-20T09:35:24;3.03;;;2.20;;
46084;SDS011;31823;47.032;8.310;2023-07-20T09:37:59;4.20;;;2.42;;
46084;SDS011;31823;47.032;8.310;2023-07-20T09:42:51;5.68;;;3.22;;
46084;SDS011;31823;47.032;8.310;2023-07-20T09:45:28;5.80;;;2.47;;
46084;SDS011;31823;47.032;8.310;2023-07-20T09:48:03;6.97;;;2.97;;
46084;SDS011;31823;47.032;8.310;2023-07-20T09:50:30;5.90;;;2.60;;
46084;SDS011;31823;47.032;8.310;2023-07-20T09:52:58;5.97;;;2.65;;
46084;SDS011;31823;47.032;8.310;2023-07-20T09:55:27;3.58;;;2.22;;
46084;SDS011;31823;47.032;8.310;2023-07-20T09:57:54;6.97;;;2.33;;
46084;SDS011;31823;47.032;8.310;2023-07-20T10:00:21;4.72;;;2.35;;
46084;SDS011;31823;47.032;8.310;2023-07-20T10:02:47;4.07;;;1.88;;
46084;SDS011;31823;47.032;8.310;2023-07-20T10:05:16;2.78;;;1.98;;
46084;SDS011;31823;47.032;8.310;2023-07-20T10:07:44;4.88;;;2.30;;
46084;SDS011;31823;47.032;8.310;2023-07-20T10:10:16;2.90;;;2.08;;
46084;SDS011;31823;47.032;8.310;2023-07-20T10:12:44;8.15;;;2.80;;
46084;SDS011;31823;47.032;8.310;2023-07-20T10:15:14;8.73;;;3.30;;
46084;SDS011;31823;47.032;8.310;2023-07-20T10:18:02;3.90;;;2.25;;
46084;SDS011;31823;47.032;8.310;2023-07-20T10:20:33;4.18;;;2.55;;
46084;SDS011;31823;47.032;8.310;2023-07-20T10:23:01;4.63;;;3.00;;
46084;SDS011;31823;47.032;8.310;2023-07-20T10:25:28;4.10;;;2.08;;
46084;SDS011;31823;47.032;8.310;2023-07-20T10:27:55;5.55;;;2.65;;
46084;SDS011;31823;47.032;8.310;2023-07-20T10:30:22;3.20;;;2.50;;
46084;SDS011;31823;47.032;8.310;2023-07-20T10:32:49;3.92;;;2.58;;
46084;SDS011;31823;47.032;8.310;2023-07-20T10:35:16;4.57;;;2.33;;
46084;SDS011;31823;47.032;8.310;2023-07-20T10:40:38;3.88;;;2.35;;
46084;SDS011;31823;47.032;8.310;2023-07-20T10:43:05;4.57;;;2.50;;
46084;SDS011;31823;47.032;8.310;2023-07-20T10:45:35;2.97;;;2.15;;
46084;SDS011;31823;47.032;8.310;2023-07-20T10:48:22;4.35;;;2.60;;
46084;SDS011;31823;47.032;8.310;2023-07-20T10:53:39;5.05;;;2.35;;
46084;SDS011;31823;47.032;8.310;2023-07-20T10:56:09;4.03;;;2.42;;
46084;SDS011;31823;47.032;8.310;2023-07-20T10:58:44;4.32;;;2.42;;
46084;SDS011;31823;47.032;8.310;2023-07-20T11:01:12;3.65;;;2.30;;
46084;SDS011;31823;47.032;8.310;2023-07-20T11:03:39;3.72;;;2.47;;
46084;SDS011;31823;47.032;8.310;2023-07-20T11:08:54;3.53;;;2.20;;
46084;SDS011;31823;47.032;8.310;2023-07-20T11:11:28;4.25;;;2.50;;
46084;SDS011;31823;47.032;8.310;2023-07-20T11:13:59;2.92;;;2.10;;
46084;SDS011;31823;47.032;8.310;2023-07-20T11:19:00;4.63;;;2.10;;
46084;SDS011;31823;47.032;8.310;2023-07-20T11:21:26;3.65;;;2.33;;
46084;SDS011;31823;47.032;8.310;2023-07-20T11:23:52;4.32;;;2.63;;
46084;SDS011;31823;47.032;8.310;2023-07-20T11:26:18;5.50;;;2.60;;
46084;SDS011;31823;47.032;8.310;2023-07-20T11:28:48;3.00;;;2.35;;
46084;SDS011;31823;47.032;8.310;2023-07-20T11:31:14;4.78;;;2.30;;
46084;SDS011;31823;47.032;8.310;2023-07-20T11:33:43;4.63;;;1.98;;
46084;SDS011;31823;47.032;8.310;2023-07-20T11:36:08;12.52;;;3.15;;
46084;SDS011;31823;47.032;8.310;2023-07-20T11:38:34;3.47;;;2.30;;
46084;SDS011;31823;47.032;8.310;2023-07-20T11:41:00;3.67;;;2.22;;
46084;SDS011;31823;47.032;8.310;2023-07-20T11:43:27;3.55;;;2.30;;
46084;SDS011;31823;47.032;8.310;2023-07-20T11:45:53;4.40;;;2.35;;
46084;SDS011;31823;47.032;8.310;2023-07-20T11:48:19;6.47;;;2.65;;
46084;SDS011;31823;47.032;8.310;2023-07-20T11:50:44;4.20;;;2.58;;
46084;SDS011;31823;47.032;8.310;2023-07-20T11:53:10;3.00;;;2.17;;
46084;SDS011;31823;47.032;8.310;2023-07-20T11:55:36;3.25;;;2.30;;
46084;SDS011;31823;47.032;8.310;2023-07-20T11:58:04;4.10;;;2.58;;
46084;SDS011;31823;47.032;8.310;2023-07-20T12:00:30;3.78;;;2.97;;
46084;SDS011;31823;47.032;8.310;2023-07-20T12:02:57;2.92;;;2.50;;
46084;SDS011;31823;47.032;8.310;2023-07-20T12:05:22;5.68;;;2.35;;
46084;SDS011;31823;47.032;8.310;2023-07-20T12:07:49;5.07;;;2.40;;
46084;SDS011;31823;47.032;8.310;2023-07-20T12:10:25;5.55;;;2.33;;
46084;SDS011;31823;47.032;8.310;2023-07-20T12:12:53;5.75;;;2.25;;
46084;SDS011;31823;47.032;8.310;2023-07-20T12:15:23;6.05;;;2.85;;
46084;SDS011;31823;47.032;8.310;2023-07-20T12:17:52;6.97;;;2.90;;
46084;SDS011;31823;47.032;8.310;2023-07-20T12:20:32;3.53;;;2.15;;
46084;SDS011;31823;47.032;8.310;2023-07-20T12:23:03;2.90;;;2.25;;
46084;SDS011;31823;47.032;8.310;2023-07-20T12:25:40;5.47;;;2.72;;
46084;SDS011;31823;47.032;8.310;2023-07-20T12:28:16;3.22;;;2.40;;
46084;SDS011;31823;47.032;8.310;2023-07-20T12:30:43;3.90;;;2.67;;
46084;SDS011;31823;47.032;8.310;2023-07-20T12:33:09;4.38;;;2.45;;
46084;SDS011;31823;47.032;8.310;2023-07-20T12:35:37;3.17;;;2.83;;
46084;SDS011;31823;47.032;8.310;2023-07-20T12:38:02;5.07;;;2.78;;
46084;SDS011;31823;47.032;8.310;2023-07-20T12:40:28;8.68;;;2.72;;
46084;SDS011;31823;47.032;8.310;2023-07-20T12:42:54;6.68;;;2.40;;
46084;SDS011;31823;47.032;8.310;2023-07-20T12:45:20;6.05;;;2.72;;
46084;SDS011;31823;47.032;8.310;2023-07-20T12:47:46;5.80;;;2.58;;
46084;SDS011;31823;47.032;8.310;2023-07-20T12:50:13;3.83;;;2.28;;
46084;SDS011;31823;47.032;8.310;2023-07-20T12:52:39;5.65;;;3.03;;
46084;SDS011;31823;47.032;8.310;2023-07-20T12:55:08;2.55;;;2.20;;
46084;SDS011;31823;47.032;8.310;2023-07-20T12:57:35;4.25;;;2.70;;
46084;SDS011;31823;47.032;8.310;2023-07-20T13:00:01;4.65;;;2.60;;
46084;SDS011;31823;47.032;8.310;2023-07-20T13:02:29;6.22;;;2.35;;
46084;SDS011;31823;47.032;8.310;2023-07-20T13:04:56;4.03;;;2.50;;
46084;SDS011;31823;47.032;8.310;2023-07-20T13:07:29;4.45;;;2.40;;
46084;SDS011;31823;47.032;8.310;2023-07-20T13:09:56;3.45;;;2.70;;
46084;SDS011;31823;47.032;8.310;2023-07-20T13:12:24;3.92;;;2.50;;
46084;SDS011;31823;47.032;8.310;2023-07-20T13:14:49;3.90;;;2.20;;
46084;SDS011;31823;47.032;8.310;2023-07-20T13:17:15;5.20;;;2.50;;
46084;SDS011;31823;47.032;8.310;2023-07-20T13:19:40;3.53;;;2.60;;
46084;SDS011;31823;47.032;8.310;2023-07-20T13:22:06;2.97;;;2.17;;
46084;SDS011;31823;47.032;8.310;2023-07-20T13:24:31;5.00;;;2.42;;
46084;SDS011;31823;47.032;8.310;2023-07-20T13:26:57;5.53;;;2.45;;
46084;SDS011;31823;47.032;8.310;2023-07-20T13:29:23;3.47;;;2.65;;
46084;SDS011;31823;47.032;8.310;2023-07-20T13:31:50;4.15;;;2.78;;
46084;SDS011;31823;47.032;8.310;2023-07-20T13:34:15;3.85;;;2.33;;
46084;SDS011;31823;47.032;8.310;2023-07-20T13:36:41;5.18;;;2.80;;
46084;SDS011;31823;47.032;8.310;2023-07-20T13:39:06;4.55;;;2.75;;
46084;SDS011;31823;47.032;8.310;2023-07-20T13:41:33;3.92;;;2.80;;
46084;SDS011;31823;47.032;8.310;2023-07-20T13:43:59;4.13;;;2.53;;
46084;SDS011;31823;47.032;8.310;2023-07-20T13:46:25;4.25;;;2.45;;
46084;SDS011;31823;47.032;8.310;2023-07-20T13:48:50;3.90;;;2.58;;
46084;SDS011;31823;47.032;8.310;2023-07-20T13:51:16;7.78;;;2.90;;
46084;SDS011;31823;47.032;8.310;2023-07-20T13:53:42;5.68;;;2.88;;
46084;SDS011;31823;47.032;8.310;2023-07-20T13:56:10;5.05;;;2.40;;
46084;SDS011;31823;47.032;8.310;2023-07-20T13:58:35;9.27;;;2.30;;
46084;SDS011;31823;47.032;8.310;2023-07-20T14:01:01;3.55;;;2.50;;
46084;SDS011;31823;47.032;8.310;2023-07-20T14:03:27;6.07;;;2.83;;
46084;SDS011;31823;47.032;8.310;2023-07-20T14:05:53;6.90;;;2.55;;
46084;SDS011;31823;47.032;8.310;2023-07-20T14:08:18;4.10;;;2.72;;
46084;SDS011;31823;47.032;8.310;2023-07-20T14:10:44;5.13;;;3.05;;
46084;SDS011;31823;47.032;8.310;2023-07-20T14:13:09;3.90;;;2.60;;
46084;SDS011;31823;47.032;8.310;2023-07-20T14:15:35;5.68;;;2.60;;
46084;SDS011;31823;47.032;8.310;2023-07-20T14:18:01;5.90;;;2.78;;
46084;SDS011;31823;47.032;8.310;2023-07-20T14:20:26;5.85;;;3.90;;
46084;SDS011;31823;47.032;8.310;2023-07-20T14:22:52;5.75;;;2.45;;
46084;SDS011;31823;47.032;8.310;2023-07-20T14:25:17;4.75;;;2.70;;
46084;SDS011;31823;47.032;8.310;2023-07-20T14:27:43;5.78;;;2.60;;
46084;SDS011;31823;47.032;8.310;2023-07-20T14:30:09;6.90;;;2.72;;
46084;SDS011;31823;47.032;8.310;2023-07-20T14:32:35;3.42;;;2.60;;
46084;SDS011;31823;47.032;8.310;2023-07-20T14:35:00;5.05;;;2.50;;
46084;SDS011;31823;47.032;8.310;2023-07-20T14:37:26;5.00;;;2.92;;
46084;SDS011;31823;47.032;8.310;2023-07-20T14:39:51;8.30;;;3.33;;
46084;SDS011;31823;47.032;8.310;2023-07-20T14:42:17;3.05;;;2.67;;
46084;SDS011;31823;47.032;8.310;2023-07-20T14:44:43;10.88;;;2.95;;
46084;SDS011;31823;47.032;8.310;2023-07-20T14:47:09;4.13;;;2.67;;
46084;SDS011;31823;47.032;8.310;2023-07-20T14:49:35;6.25;;;4.22;;
46084;SDS011;31823;47.032;8.310;2023-07-20T14:52:00;5.43;;;2.90;;
46084;SDS011;31823;47.032;8.310;2023-07-20T14:54:27;4.00;;;2.88;;
46084;SDS011;31823;47.032;8.310;2023-07-20T14:56:52;8.90;;;3.10;;
46084;SDS011;31823;47.032;8.310;2023-07-20T14:59:18;3.80;;;2.90;;
46084;SDS011;31823;47.032;8.310;2023-07-20T15:01:44;4.28;;;3.08;;
46084;SDS011;31823;47.032;8.310;2023-07-20T15:04:15;8.07;;;2.90;;
46084;SDS011;31823;47.032;8.310;2023-07-20T15:06:41;5.35;;;2.95;;
46084;SDS011;31823;47.032;8.310;2023-07-20T15:09:07;4.63;;;3.10;;
46084;SDS011;31823;47.032;8.310;2023-07-20T15:11:33;5.38;;;2.85;;
46084;SDS011;31823;47.032;8.310;2023-07-20T15:13:59;6.63;;;2.80;;
46084;SDS011;31823;47.032;8.310;2023-07-20T15:16:25;3.53;;;2.58;;